createdAt,value
2019-02-24T00:00:41.425Z,1.40
2019-02-24T00:03:09.804Z,1.50
2019-02-24T00:05:38.170Z,1.20
2019-02-24T00:08:06.449Z,1.60
2019-02-24T00:10:34.752Z,1.40
2019-02-24T00:13:03.031Z,1.20
2019-02-24T00:15:31.403Z,1.40
2019-02-24T00:17:59.925Z,1.40
2019-02-24T00:20:28.227Z,1.10
2019-02-24T00:22:56.604Z,1.40
2019-02-24T00:25:24.987Z,1.30
2019-02-24T00:27:53.341Z,1.40
2019-02-24T00:30:21.647Z,1.30
2019-02-24T00:32:50.013Z,1.30
2019-02-24T00:35:18.367Z,1.30
2019-02-24T00:37:46.701Z,1.40
2019-02-24T00:40:15.059Z,1.40
2019-02-24T00:42:43.375Z,1.43
2019-02-24T00:45:11.886Z,1.23
2019-02-24T00:47:40.177Z,1.20
2019-02-24T00:50:09.303Z,1.30
2019-02-24T00:52:37.688Z,1.30
2019-02-24T00:55:07.208Z,1.50
2019-02-24T00:57:35.660Z,1.40
2019-02-24T01:00:05.815Z,1.30
2019-02-24T01:02:34.249Z,1.43
2019-02-24T01:05:02.598Z,1.30
2019-02-24T01:07:31.027Z,1.23
2019-02-24T01:09:59.396Z,1.50
2019-02-24T01:12:27.714Z,1.33
2019-02-24T01:14:56.072Z,1.33
2019-02-24T01:17:24.460Z,1.40
2019-02-24T01:19:52.806Z,1.47
2019-02-24T01:22:21.206Z,1.33
2019-02-24T01:24:49.556Z,1.20
2019-02-24T01:27:17.920Z,1.33
2019-02-24T01:29:46.288Z,1.40
2019-02-24T01:32:14.592Z,1.30
2019-02-24T01:34:42.942Z,1.20
2019-02-24T01:37:11.242Z,1.30
2019-02-24T01:39:39.662Z,1.40
2019-02-24T01:42:08.014Z,1.27
2019-02-24T01:44:36.376Z,1.30
2019-02-24T01:47:04.746Z,1.20
2019-02-24T01:49:33.100Z,1.30
2019-02-24T01:52:01.399Z,1.40
2019-02-24T01:54:29.682Z,1.30
2019-02-24T01:56:57.980Z,1.07
2019-02-24T01:59:26.328Z,1.40
2019-02-24T02:01:54.662Z,1.30
2019-02-24T02:04:23.026Z,1.10
2019-02-24T02:06:51.498Z,1.47
2019-02-24T02:09:19.789Z,1.60
2019-02-24T02:11:48.062Z,1.30
2019-02-24T02:14:16.385Z,1.47
2019-02-24T02:16:44.733Z,1.30
2019-02-24T02:19:13.107Z,1.20
2019-02-24T02:21:41.495Z,1.33
2019-02-24T02:24:09.867Z,1.30
2019-02-24T02:26:38.160Z,1.20
2019-02-24T02:29:06.519Z,1.30
2019-02-24T02:31:34.799Z,1.40
2019-02-24T02:34:03.098Z,1.50
2019-02-24T02:36:31.446Z,1.20
2019-02-24T02:38:59.825Z,1.23
2019-02-24T02:41:28.330Z,1.27
2019-02-24T02:43:56.754Z,1.10
2019-02-24T02:46:25.109Z,1.50
2019-02-24T02:48:53.483Z,1.27
2019-02-24T02:51:21.938Z,1.20
2019-02-24T02:53:50.296Z,1.20
2019-02-24T02:56:18.656Z,1.40
2019-02-24T02:58:53.866Z,1.40
2019-02-24T03:01:17.045Z,1.30
2019-02-24T03:03:45.402Z,1.23
2019-02-24T03:06:15.323Z,1.10
2019-02-24T03:08:51.042Z,1.20
2019-02-24T03:11:19.410Z,1.40
2019-02-24T03:13:47.774Z,1.40
2019-02-24T03:16:17.773Z,1.33
2019-02-24T03:18:46.151Z,1.50
2019-02-24T03:21:14.443Z,1.40
2019-02-24T03:23:42.811Z,1.40
2019-02-24T03:26:11.086Z,1.23
2019-02-24T03:28:39.527Z,1.37
2019-02-24T03:31:07.867Z,1.40
2019-02-24T03:33:36.275Z,1.17
2019-02-24T03:36:04.660Z,1.23
2019-02-24T03:38:33.208Z,1.33
2019-02-24T03:41:01.574Z,1.20
2019-02-24T03:43:29.868Z,1.73
2019-02-24T03:45:58.331Z,1.23
2019-02-24T03:48:26.820Z,1.10
2019-02-24T03:50:55.190Z,1.33
2019-02-24T03:53:23.591Z,1.30
2019-02-24T03:55:51.979Z,1.33
2019-02-24T03:58:20.333Z,1.37
2019-02-24T04:00:48.635Z,1.57
2019-02-24T04:03:16.992Z,1.20
2019-02-24T04:05:45.281Z,1.30
2019-02-24T04:08:13.707Z,1.40
2019-02-24T04:10:42.050Z,1.30
2019-02-24T04:13:10.354Z,1.23
2019-02-24T04:15:38.899Z,1.37
2019-02-24T04:18:07.274Z,1.40
2019-02-24T04:20:35.649Z,1.40
2019-02-24T04:23:04.065Z,1.20
2019-02-24T04:25:32.444Z,1.40
2019-02-24T04:28:00.760Z,1.47
2019-02-24T04:30:29.127Z,1.40
2019-02-24T04:32:57.498Z,1.47
2019-02-24T04:35:25.797Z,1.53
2019-02-24T04:37:54.190Z,1.33
2019-02-24T04:40:22.791Z,1.30
2019-02-24T04:42:51.147Z,1.20
2019-02-24T04:45:19.509Z,1.30
2019-02-24T04:47:47.817Z,1.30
2019-02-24T04:50:16.167Z,1.37
2019-02-24T04:52:44.727Z,1.47
2019-02-24T04:55:13.165Z,1.30
2019-02-24T04:57:41.537Z,1.40
2019-02-24T05:00:10.335Z,1.33
2019-02-24T05:02:38.747Z,1.40
2019-02-24T05:05:07.198Z,1.20
2019-02-24T05:07:35.496Z,1.30
2019-02-24T05:10:06.048Z,1.50
2019-02-24T05:12:34.390Z,1.20
2019-02-24T05:15:02.686Z,1.27
2019-02-24T05:17:31.058Z,1.30
2019-02-24T05:19:59.409Z,1.30
2019-02-24T05:22:27.718Z,1.30
2019-02-24T05:24:56.021Z,1.27
2019-02-24T05:27:24.461Z,1.70
2019-02-24T05:29:52.857Z,1.30
2019-02-24T05:32:21.243Z,1.37
2019-02-24T05:34:49.679Z,1.30
2019-02-24T05:37:18.103Z,1.40
2019-02-24T05:39:46.461Z,1.33
2019-02-24T05:42:14.837Z,1.30
2019-02-24T05:44:43.186Z,1.20
2019-02-24T05:47:11.554Z,1.40
2019-02-24T05:49:39.902Z,1.40
2019-02-24T05:52:08.255Z,1.50
2019-02-24T05:54:36.561Z,1.50
2019-02-24T05:57:04.850Z,1.40
2019-02-24T05:59:33.222Z,1.53
2019-02-24T06:02:01.572Z,1.30
2019-02-24T06:04:29.994Z,1.47
2019-02-24T06:06:58.345Z,1.40
2019-02-24T06:09:26.761Z,1.40
2019-02-24T06:11:55.081Z,1.60
2019-02-24T06:14:23.439Z,1.40
2019-02-24T06:16:51.837Z,1.50
2019-02-24T06:19:20.207Z,1.40
2019-02-24T06:21:48.579Z,1.53
2019-02-24T06:24:17.669Z,1.50
2019-02-24T06:26:46.029Z,1.40
2019-02-24T06:29:14.412Z,1.20
2019-02-24T06:31:42.756Z,1.50
2019-02-24T06:34:11.823Z,1.50
2019-02-24T06:36:40.099Z,1.37
2019-02-24T06:39:08.403Z,1.40
2019-02-24T06:41:36.832Z,1.40
2019-02-24T06:44:05.203Z,1.50
2019-02-24T06:46:33.691Z,1.70
2019-02-24T06:49:02.027Z,1.80
2019-02-24T06:51:30.472Z,1.80
2019-02-24T06:53:58.856Z,1.80
2019-02-24T06:56:27.376Z,1.93
2019-02-24T06:58:55.757Z,1.80
2019-02-24T07:01:24.061Z,1.90
2019-02-24T07:03:54.552Z,1.87
2019-02-24T07:06:22.786Z,1.90
2019-02-24T07:08:51.380Z,1.57
2019-02-24T07:11:19.662Z,1.70
2019-02-24T07:13:48.248Z,1.73
2019-02-24T07:16:16.691Z,1.40
2019-02-24T07:18:44.999Z,1.97
2019-02-24T07:21:13.355Z,1.90
2019-02-24T07:23:41.778Z,1.70
2019-02-24T07:26:10.144Z,1.80
2019-02-24T07:28:38.442Z,1.73
2019-02-24T07:31:06.727Z,1.70
2019-02-24T07:33:35.032Z,1.80
2019-02-24T07:36:03.410Z,1.80
2019-02-24T07:38:31.772Z,1.67
2019-02-24T07:41:00.086Z,1.70
2019-02-24T07:43:28.458Z,1.87
2019-02-24T07:45:56.893Z,1.90
2019-02-24T07:48:25.306Z,1.70
2019-02-24T07:50:53.610Z,1.50
2019-02-24T07:53:22.261Z,1.60
2019-02-24T07:55:50.660Z,1.60
2019-02-24T07:58:18.990Z,1.60
2019-02-24T08:00:47.300Z,1.50
2019-02-24T08:03:15.667Z,1.60
2019-02-24T08:05:44.127Z,1.50
2019-02-24T08:08:16.533Z,1.47
2019-02-24T08:10:42.944Z,1.57
2019-02-24T08:13:11.305Z,1.80
2019-02-24T08:15:39.675Z,1.40
2019-02-24T08:18:08.039Z,1.50
2019-02-24T08:20:36.339Z,1.70
2019-02-24T08:23:04.635Z,1.80
2019-02-24T08:25:33.087Z,1.70
2019-02-24T08:28:01.423Z,1.60
2019-02-24T08:30:29.853Z,1.73
2019-02-24T08:32:58.204Z,1.60
2019-02-24T08:35:26.617Z,1.70
2019-02-24T08:37:55.000Z,1.77
2019-02-24T08:40:23.411Z,1.60
2019-02-24T08:42:51.777Z,1.70
2019-02-24T08:45:20.155Z,1.90
2019-02-24T08:47:48.690Z,2.10
2019-02-24T08:50:17.069Z,2.00
2019-02-24T08:52:45.350Z,1.87
2019-02-24T08:55:13.938Z,2.17
2019-02-24T08:57:42.328Z,2.00
2019-02-24T09:00:13.234Z,1.90
2019-02-24T09:02:41.595Z,2.00
2019-02-24T09:05:10.750Z,2.20
2019-02-24T09:07:43.458Z,1.90
2019-02-24T09:10:17.924Z,2.20
2019-02-24T09:12:46.293Z,2.77
2019-02-24T09:15:17.826Z,3.50
2019-02-24T09:17:46.758Z,4.60
2019-02-24T09:20:15.646Z,5.30
2019-02-24T09:22:44.651Z,5.50
2019-02-24T09:25:13.049Z,6.03
2019-02-24T09:27:41.450Z,6.37
2019-02-24T09:30:14.110Z,6.37
2019-02-24T09:32:42.450Z,6.47
2019-02-24T09:35:10.802Z,6.00
2019-02-24T09:37:39.153Z,5.97
2019-02-24T09:40:09.870Z,5.93
2019-02-24T09:42:38.336Z,5.93
2019-02-24T09:45:09.304Z,5.77
2019-02-24T09:47:46.283Z,5.37
2019-02-24T09:50:09.150Z,4.80
2019-02-24T09:52:37.433Z,5.23
2019-02-24T09:55:07.929Z,4.93
2019-02-24T09:57:37.098Z,5.13
2019-02-24T10:00:08.937Z,4.50
2019-02-24T10:02:37.370Z,4.23
2019-02-24T10:05:06.512Z,4.00
2019-02-24T10:07:34.948Z,4.00
2019-02-24T10:10:03.823Z,4.23
2019-02-24T10:12:32.379Z,3.73
2019-02-24T10:15:00.687Z,3.83
2019-02-24T10:17:30.868Z,3.17
2019-02-24T10:19:59.223Z,3.57
2019-02-24T10:22:28.282Z,3.23
2019-02-24T10:24:56.815Z,2.80
2019-02-24T10:27:25.206Z,3.03
2019-02-24T10:29:54.349Z,3.03
2019-02-24T10:32:22.902Z,2.90
2019-02-24T10:34:51.173Z,2.87
2019-02-24T10:37:19.566Z,2.83
2019-02-24T10:39:47.923Z,2.57
2019-02-24T10:42:16.223Z,3.00
2019-02-24T10:44:44.593Z,2.30
2019-02-24T10:47:12.983Z,2.70
2019-02-24T10:49:41.879Z,2.30
2019-02-24T10:52:10.724Z,2.93
2019-02-24T10:54:39.102Z,2.43
2019-02-24T10:57:11.717Z,3.10
2019-02-24T10:59:37.445Z,3.30
2019-02-24T11:02:05.840Z,2.83
2019-02-24T11:04:34.257Z,2.80
2019-02-24T11:07:02.762Z,2.87
2019-02-24T11:09:31.280Z,2.90
2019-02-24T11:11:59.634Z,2.80
2019-02-24T11:14:27.948Z,2.43
2019-02-24T11:16:56.356Z,2.50
2019-02-24T11:19:24.748Z,2.43
2019-02-24T11:21:53.154Z,2.37
2019-02-24T11:24:21.537Z,2.50
2019-02-24T11:26:49.887Z,2.53
2019-02-24T11:29:18.211Z,2.40
2019-02-24T11:31:46.572Z,2.10
2019-02-24T11:34:15.064Z,2.27
2019-02-24T11:36:43.438Z,2.10
2019-02-24T11:39:11.904Z,2.10
2019-02-24T11:41:40.360Z,1.83
2019-02-24T11:44:08.758Z,2.07
2019-02-24T11:46:37.066Z,1.93
2019-02-24T11:49:05.410Z,1.90
2019-02-24T11:51:33.718Z,2.20
2019-02-24T11:54:02.014Z,1.77
2019-02-24T11:56:30.570Z,2.00
2019-02-24T11:58:58.915Z,1.87
2019-02-24T12:01:27.276Z,1.80
2019-02-24T12:03:55.649Z,2.00
2019-02-24T12:06:24.032Z,1.93
2019-02-24T12:08:52.395Z,2.00
2019-02-24T12:11:20.776Z,1.73
2019-02-24T12:13:49.282Z,1.80
2019-02-24T12:16:17.597Z,1.80
2019-02-24T12:18:45.963Z,2.03
2019-02-24T12:21:14.369Z,1.97
2019-02-24T12:23:42.675Z,2.10
2019-02-24T12:26:11.111Z,1.80
2019-02-24T12:28:39.491Z,1.73
2019-02-24T12:31:07.951Z,2.07
2019-02-24T12:33:36.857Z,1.97
2019-02-24T12:36:05.247Z,1.80
2019-02-24T12:42:39.631Z,1.90
2019-02-24T12:45:24.037Z,2.03
2019-02-24T12:48:00.553Z,1.63
2019-02-24T12:50:40.149Z,1.80
2019-02-24T12:53:10.381Z,1.63
2019-02-24T12:55:47.470Z,1.60
2019-02-24T12:58:13.352Z,1.87
2019-02-24T13:00:41.857Z,1.60
2019-02-24T13:03:10.201Z,1.67
2019-02-24T13:05:38.659Z,1.50
2019-02-24T13:08:08.456Z,1.70
2019-02-24T13:10:45.528Z,1.60
2019-02-24T13:13:37.870Z,1.70
2019-02-24T13:15:55.294Z,1.67
2019-02-24T13:18:37.659Z,1.50
2019-02-24T13:21:13.118Z,1.60
2019-02-24T13:23:51.112Z,1.40
2019-02-24T13:26:33.659Z,1.80
2019-02-24T13:35:23.451Z,1.50
2019-02-24T13:37:45.096Z,1.60
2019-02-24T13:40:16.083Z,1.60
2019-02-24T13:46:55.980Z,1.57
2019-02-24T13:48:56.252Z,1.50
2019-02-24T13:52:15.829Z,1.40
2019-02-24T13:56:46.170Z,1.37
2019-02-24T14:00:21.656Z,1.50
2019-02-24T14:02:50.111Z,1.60
2019-02-24T14:05:18.576Z,1.33
2019-02-24T14:08:07.874Z,1.50
2019-02-24T14:10:37.161Z,1.60
2019-02-24T14:13:36.371Z,1.53
2019-02-24T14:16:02.818Z,1.50
2019-02-24T14:18:31.120Z,1.63
2019-02-24T14:20:59.951Z,1.43
2019-02-24T14:23:28.337Z,1.40
2019-02-24T14:25:56.783Z,1.60
2019-02-24T14:28:25.530Z,1.80
2019-02-24T14:30:54.405Z,1.80
2019-02-24T14:33:22.819Z,1.63
2019-02-24T14:35:51.292Z,1.97
2019-02-24T14:38:19.669Z,1.80
2019-02-24T14:40:49.026Z,1.50
2019-02-24T14:43:18.088Z,1.53
2019-02-24T14:45:49.677Z,1.80
2019-02-24T14:48:20.016Z,1.60
2019-02-24T14:50:49.075Z,1.60
2019-02-24T14:53:18.380Z,1.40
2019-02-24T14:55:49.428Z,1.30
2019-02-24T14:58:18.227Z,1.30
2019-02-24T15:00:47.678Z,1.50
2019-02-24T15:03:16.066Z,1.40
2019-02-24T15:05:44.398Z,1.30
2019-02-24T15:08:12.736Z,1.20
2019-02-24T15:10:41.103Z,1.20
2019-02-24T15:13:09.520Z,1.27
2019-02-24T15:15:37.905Z,1.30
2019-02-24T15:18:06.449Z,1.20
2019-02-24T15:20:34.807Z,1.20
2019-02-24T15:23:03.346Z,1.40
2019-02-24T15:25:31.930Z,1.30
2019-02-24T15:28:00.294Z,1.10
2019-02-24T15:30:33.346Z,1.20
2019-02-24T15:33:02.328Z,1.20
2019-02-24T15:35:31.158Z,1.17
2019-02-24T15:37:59.712Z,1.10
2019-02-24T15:40:28.057Z,1.20
2019-02-24T15:42:56.521Z,0.93
2019-02-24T15:45:24.827Z,1.00
2019-02-24T15:47:53.176Z,1.10
2019-02-24T15:50:21.702Z,1.07
2019-02-24T15:52:50.057Z,0.90
2019-02-24T15:55:18.406Z,1.10
2019-02-24T15:57:46.759Z,1.07
2019-02-24T16:00:27.220Z,1.13
2019-02-24T16:03:01.395Z,1.30
2019-02-24T16:05:25.522Z,1.13
2019-02-24T16:07:53.879Z,1.17
2019-02-24T16:10:22.813Z,1.20
2019-02-24T16:12:51.090Z,1.00
2019-02-24T16:15:27.214Z,0.97
2019-02-24T16:17:55.631Z,1.00
2019-02-24T16:20:32.213Z,1.20
2019-02-24T16:23:00.516Z,1.00
2019-02-24T16:25:28.866Z,1.20
2019-02-24T16:27:57.171Z,1.10
2019-02-24T16:30:25.461Z,1.17
2019-02-24T16:32:58.092Z,1.10
2019-02-24T16:35:26.376Z,1.07
2019-02-24T16:37:54.673Z,1.13
2019-02-24T16:40:27.348Z,1.20
2019-02-24T16:42:55.715Z,1.10
2019-02-24T16:45:23.993Z,1.07
2019-02-24T16:47:52.285Z,1.27
2019-02-24T16:50:24.078Z,1.20
2019-02-24T16:52:52.385Z,1.40
2019-02-24T16:55:20.735Z,1.80
2019-02-24T16:57:49.109Z,1.50
2019-02-24T17:00:28.441Z,1.57
2019-02-24T17:02:56.810Z,1.70
2019-02-24T17:05:25.215Z,1.80
2019-02-24T17:07:53.517Z,1.63
2019-02-24T17:10:24.089Z,1.50
2019-02-24T17:12:52.444Z,1.70
2019-02-24T17:15:20.807Z,1.80
2019-02-24T17:17:49.078Z,1.40
2019-02-24T17:20:28.332Z,1.67
2019-02-24T17:22:56.612Z,1.60
2019-02-24T17:25:26.117Z,1.73
2019-02-24T17:27:54.393Z,1.90
2019-02-24T17:30:23.809Z,1.90
2019-02-24T17:32:52.495Z,1.97
2019-02-24T17:35:20.874Z,2.17
2019-02-24T17:37:49.150Z,2.17
2019-02-24T17:40:19.619Z,2.13
2019-02-24T17:42:49.259Z,2.20
2019-02-24T17:45:17.630Z,1.90
2019-02-24T17:47:45.988Z,1.67
2019-02-24T17:50:17.590Z,1.97
2019-02-24T17:52:45.916Z,2.00
2019-02-24T17:55:15.448Z,1.90
2019-02-24T17:57:43.805Z,1.70
2019-02-24T18:00:15.855Z,1.80
2019-02-24T18:02:44.151Z,1.80
2019-02-24T18:05:12.422Z,1.90
2019-02-24T18:07:40.722Z,1.60
2019-02-24T18:10:09.080Z,1.40
2019-02-24T18:12:37.376Z,1.90
2019-02-24T18:15:09.077Z,1.63
2019-02-24T18:17:37.366Z,1.73
2019-02-24T18:20:11.960Z,1.60
2019-02-24T18:22:40.248Z,1.77
2019-02-24T18:25:10.677Z,1.70
2019-02-24T18:27:38.951Z,1.67
2019-02-24T18:30:13.569Z,1.90
2019-02-24T18:32:41.836Z,1.90
2019-02-24T18:35:10.129Z,1.57
2019-02-24T18:37:38.766Z,1.60
2019-02-24T18:40:10.399Z,1.70
2019-02-24T18:42:39.557Z,1.77
2019-02-24T18:45:10.149Z,1.80
2019-02-24T18:47:38.505Z,1.90
2019-02-24T18:50:09.903Z,1.90
2019-02-24T18:52:38.264Z,1.80
2019-02-24T18:55:08.675Z,1.83
2019-02-24T18:57:37.035Z,1.80
2019-02-24T19:00:11.520Z,1.50
2019-02-24T19:02:39.866Z,1.70
2019-02-24T19:05:08.651Z,1.47
2019-02-24T19:07:37.041Z,1.80
2019-02-24T19:10:08.650Z,1.60
2019-02-24T19:12:36.943Z,1.73
2019-02-24T19:15:07.470Z,1.80
2019-02-24T19:17:36.032Z,1.60
2019-02-24T19:20:06.909Z,1.60
2019-02-24T19:22:35.224Z,1.60
2019-02-24T19:25:03.846Z,1.50
2019-02-24T19:27:32.156Z,1.70
2019-02-24T19:30:00.508Z,1.73
2019-02-24T19:32:28.798Z,1.50
2019-02-24T19:34:57.082Z,1.50
2019-02-24T19:37:25.449Z,1.80
2019-02-24T19:39:53.742Z,2.10
2019-02-24T19:42:22.062Z,2.57
2019-02-24T19:44:50.331Z,1.97
2019-02-24T19:47:18.628Z,2.73
2019-02-24T19:49:46.898Z,2.70
2019-02-24T19:52:16.908Z,3.00
2019-02-24T19:54:45.259Z,2.83
2019-02-24T19:57:13.545Z,2.57
2019-02-24T19:59:41.915Z,2.87
2019-02-24T20:02:29.670Z,3.00
2019-02-24T20:04:58.010Z,2.60
2019-02-24T20:07:26.316Z,2.90
2019-02-24T20:09:54.675Z,2.70
2019-02-24T20:12:22.980Z,2.80
2019-02-24T20:14:51.275Z,3.00
2019-02-24T20:17:19.748Z,2.87
2019-02-24T20:19:48.121Z,3.10
2019-02-24T20:22:16.401Z,2.90
2019-02-24T20:24:44.685Z,3.40
2019-02-24T20:27:12.975Z,3.10
2019-02-24T20:29:41.413Z,3.10
2019-02-24T20:32:09.817Z,2.83
2019-02-24T20:34:38.319Z,3.17
2019-02-24T20:37:06.783Z,3.07
2019-02-24T20:39:35.606Z,2.90
2019-02-24T20:42:04.183Z,3.20
2019-02-24T20:44:33.053Z,3.10
2019-02-24T20:47:01.467Z,2.60
2019-02-24T20:49:29.769Z,3.00
2019-02-24T20:51:58.079Z,3.07
2019-02-24T20:54:26.444Z,3.20
2019-02-24T20:56:54.811Z,2.70
2019-02-24T20:59:23.205Z,2.80
2019-02-24T21:01:51.547Z,2.90
2019-02-24T21:04:19.939Z,2.60
2019-02-24T21:06:48.297Z,2.80
2019-02-24T21:09:16.641Z,2.73
2019-02-24T21:11:45.003Z,2.93
2019-02-24T21:14:13.505Z,3.07
2019-02-24T21:16:41.818Z,2.73
2019-02-24T21:19:13.286Z,3.00
2019-02-24T21:21:41.587Z,2.70
2019-02-24T21:24:09.874Z,2.60
2019-02-24T21:26:38.182Z,3.00
2019-02-24T21:29:06.606Z,2.80
2019-02-24T21:31:34.944Z,3.07
2019-02-24T21:34:03.302Z,2.70
2019-02-24T21:36:31.586Z,2.70
2019-02-24T21:38:59.990Z,2.83
2019-02-24T21:41:29.854Z,3.03
2019-02-24T21:43:58.421Z,3.07
2019-02-24T21:46:26.855Z,3.10
2019-02-24T21:48:55.330Z,2.40
2019-02-24T21:51:23.988Z,2.80
2019-02-24T21:53:52.495Z,2.80
2019-02-24T21:56:20.949Z,2.73
2019-02-24T21:58:49.329Z,2.90
2019-02-24T22:01:17.610Z,2.80
2019-02-24T22:03:45.909Z,3.13
2019-02-24T22:06:14.266Z,2.73
2019-02-24T22:08:42.689Z,3.10
2019-02-24T22:11:11.037Z,3.07
2019-02-24T22:13:39.344Z,3.10
2019-02-24T22:16:07.702Z,2.97
2019-02-24T22:18:36.181Z,2.60
2019-02-24T22:21:04.457Z,2.90
2019-02-24T22:23:32.834Z,3.13
2019-02-24T22:26:01.211Z,2.67
2019-02-24T22:28:29.577Z,3.10
2019-02-24T22:30:57.859Z,2.77
2019-02-24T22:33:26.158Z,2.60
2019-02-24T22:35:54.457Z,2.80
2019-02-24T22:38:22.902Z,2.80
2019-02-24T22:40:54.431Z,2.83
2019-02-24T22:43:21.273Z,2.93
2019-02-24T22:45:49.565Z,2.97
2019-02-24T22:48:18.295Z,3.20
2019-02-24T22:50:46.660Z,3.10
2019-02-24T22:53:15.003Z,2.90
2019-02-24T22:55:43.317Z,2.93
2019-02-24T22:58:11.676Z,3.03
2019-02-24T23:00:53.991Z,3.00
2019-02-24T23:03:28.755Z,2.73
2019-02-24T23:05:57.033Z,2.80
2019-02-24T23:08:25.320Z,2.90
2019-02-24T23:10:53.698Z,2.80
2019-02-24T23:13:22.205Z,3.03
2019-02-24T23:15:50.577Z,2.77
2019-02-24T23:18:18.865Z,2.97
2019-02-24T23:20:47.241Z,2.73
2019-02-24T23:23:15.592Z,3.03
2019-02-24T23:25:43.899Z,3.00
2019-02-24T23:28:12.180Z,3.00
2019-02-24T23:30:40.760Z,2.70
2019-02-24T23:33:09.115Z,3.10
2019-02-24T23:35:37.473Z,3.00
2019-02-24T23:38:05.764Z,2.80
2019-02-24T23:40:34.223Z,2.87
2019-02-24T23:43:02.512Z,2.67
2019-02-24T23:45:30.932Z,3.10
2019-02-24T23:47:59.222Z,3.10
2019-02-24T23:50:27.670Z,2.90
2019-02-24T23:52:55.967Z,2.80
2019-02-24T23:55:24.331Z,2.80
2019-02-24T23:57:52.696Z,2.80
